Lubbock, Texas
Current Conditions -  °F | °C
As of 4:53 AM on Saturday 20 Dec 2014 (Local Time) from KLBB Reporting Station
Haze Haze  
Wind Chill: -2°   Ceiling: 500
Heat Index:   Visibility: 5mi
Dew Point:   Wind: 13mph
Humidity: 93%   Direction: 240°WSW
Pressure: 30.13"   Gusts: NA
Location:  33.59°N, 101.85°W
Report Text: KLBB 201053Z 24011KT 5SM BR OVC005 03/02 A3013 RMK AO2 CIG 004V010 SLP201 T00280017
Loading
Personal Weather Stations






























Interactive Weather Map New forecast layout! Learn more

10-Day Weather Forecast

Advertisements
Track Severe Weather on mobile